Time;durP1;ratioP1;P1;durP2;ratioP2;P2;SDS_P1;SDS_P2;PMS_P1;PMS_P2;Temp;Humidity;BMP_temperature;BMP_pressure;BME280_temperature;BME280_humidity;BME280_pressure;Samples;Min_cycle;Max_cycle;Signal;HPM_P1;HPM_P2
2021/10/25 06:01:16;;;;;;;32.65;5.38;;;12.80;99.90;;;;;;6156162;22;20024;-79
2021/10/25 06:03:46;;;;;;;49.30;5.82;;;12.80;99.90;;;;;;6242869;23;20023;-79
2021/10/25 06:06:13;;;;;;;46.92;6.15;;;12.80;99.90;;;;;;6242743;23;20133;-79
2021/10/25 06:08:41;;;;;;;27.80;5.15;;;12.80;99.90;;;;;;6242683;23;20016;-79
2021/10/25 06:11:08;;;;;;;50.35;6.18;;;12.80;99.90;;;;;;6242465;23;20028;-78
2021/10/25 06:13:43;;;;;;;50.83;6.65;;;12.80;99.90;;;;;;6242990;23;20421;-76
2021/10/25 06:16:14;;;;;;;36.85;5.88;;;12.70;99.90;;;;;;6241637;23;20398;-76
2021/10/25 06:18:42;;;;;;;29.98;5.55;;;12.70;99.90;;;;;;6243385;23;20024;-76
2021/10/25 06:21:09;;;;;;;49.85;6.88;;;12.70;99.90;;;;;;6241632;23;20074;-77
2021/10/25 06:23:36;;;;;;;36.53;5.55;;;12.70;99.90;;;;;;6242754;23;20535;-76
2021/10/25 06:26:04;;;;;;;31.45;5.43;;;12.70;99.90;;;;;;6216100;23;20070;-76
2021/10/25 06:28:32;;;;;;;27.92;5.30;;;12.70;99.90;;;;;;6242126;23;20339;-76
2021/10/25 06:31:05;;;;;;;45.67;6.55;;;12.70;99.90;;;;;;6243160;23;20023;-76
2021/10/25 06:33:41;;;;;;;44.92;6.13;;;12.70;99.90;;;;;;6242076;23;20008;-76
2021/10/25 06:36:09;;;;;;;37.75;6.18;;;12.70;99.90;;;;;;6242232;23;20024;-76
2021/10/25 06:38:43;;;;;;;33.42;5.95;;;12.70;99.90;;;;;;6243386;23;20463;-76
2021/10/25 06:41:10;;;;;;;39.78;6.95;;;12.70;99.90;;;;;;6241798;23;20028;-75
2021/10/25 06:43:37;;;;;;;38.72;6.65;;;12.70;99.90;;;;;;6242516;23;20340;-76
2021/10/25 06:46:06;;;;;;;29.98;6.22;;;12.60;99.90;;;;;;6242004;23;20020;-75
2021/10/25 06:48:33;;;;;;;34.75;5.75;;;12.60;99.90;;;;;;6242960;23;20359;-76
2021/10/25 06:51:00;;;;;;;36.88;5.50;;;12.60;99.90;;;;;;6242697;23;20017;-76
2021/10/25 06:53:28;;;;;;;29.63;5.20;;;12.60;99.90;;;;;;6241711;23;20020;-76
2021/10/25 06:55:55;;;;;;;28.00;4.80;;;12.60;99.90;;;;;;6242546;23;20074;-76
2021/10/25 06:58:22;;;;;;;24.35;5.35;;;12.60;99.90;;;;;;6241752;23;20501;-76
2021/10/25 07:00:49;;;;;;;21.95;4.70;;;12.60;99.90;;;;;;6239215;23;20028;-76
2021/10/25 07:03:16;;;;;;;30.98;5.25;;;12.60;99.90;;;;;;6241786;23;20024;-76
2021/10/25 07:05:43;;;;;;;29.17;5.13;;;12.60;99.90;;;;;;6242515;23;20021;-77
2021/10/25 07:08:13;;;;;;;36.95;5.20;;;12.60;99.90;;;;;;6241647;23;20054;-79
2021/10/25 07:10:41;;;;;;;30.10;4.80;;;12.60;99.90;;;;;;6242682;23;20020;-79
2021/10/25 07:13:17;;;;;;;81.25;6.30;;;12.60;99.90;;;;;;6241651;23;20059;-77
2021/10/25 07:15:48;;;;;;;33.45;5.60;;;12.60;99.90;;;;;;6244532;23;20020;-77
2021/10/25 07:18:22;;;;;;;69.45;6.32;;;12.60;99.90;;;;;;6243842;23;20170;-77
2021/10/25 08:05:27;;;;;;;27.58;5.68;;;13.00;99.90;;;;;;6120450;23;20018;-78
2021/10/25 08:10:43;;;;;;;40.58;7.15;;;13.10;99.90;;;;;;6119322;23;20034;-78
2021/10/25 08:13:13;;;;;;;42.42;8.98;;;13.10;99.90;;;;;;6119296;23;20077;-77
2021/10/25 08:15:42;;;;;;;61.53;9.90;;;13.10;99.90;;;;;;6120844;23;20385;-78
2021/10/25 08:19:05;;;;;;;42.25;9.07;;;13.20;99.90;;;;;;6119436;23;20026;-77
2021/10/25 08:21:01;;;;;;;37.03;8.88;;;13.30;99.90;;;;;;6119888;23;20540;-78
2021/10/25 08:23:28;;;;;;;53.30;9.73;;;13.30;99.90;;;;;;6119169;23;20097;-78
2021/10/25 08:25:55;;;;;;;35.28;8.05;;;13.40;99.90;;;;;;6119551;23;20483;-78
2021/10/25 08:28:22;;;;;;;41.45;7.72;;;13.50;99.90;;;;;;6119158;23;20045;-78
2021/10/25 08:30:51;;;;;;;43.55;7.15;;;13.60;99.90;;;;;;6120014;23;20076;-78
2021/10/25 08:36:19;;;;;;;35.95;6.60;;;13.70;99.90;;;;;;6119454;23;20022;-77
2021/10/25 08:41:33;;;;;;;48.17;6.93;;;13.70;99.90;;;;;;6241306;23;20362;-78
2021/10/25 08:44:04;;;;;;;28.63;6.10;;;13.80;99.90;;;;;;6241956;23;20020;-78
2021/10/25 08:46:31;;;;;;;40.30;6.15;;;13.80;99.90;;;;;;6241887;23;20405;-79
2021/10/25 08:48:59;;;;;;;44.08;5.35;;;13.90;99.90;;;;;;6242064;23;20020;-78
2021/10/25 08:51:26;;;;;;;37.85;5.63;;;14.00;99.90;;;;;;6241220;23;20073;-78
2021/10/25 08:53:53;;;;;;;33.22;5.35;;;14.00;99.90;;;;;;6241551;23;20078;-78
2021/10/25 08:56:20;;;;;;;36.58;5.88;;;14.10;99.90;;;;;;6214881;23;20024;-78
2021/10/25 08:58:50;;;;;;;28.48;5.80;;;14.10;99.90;;;;;;6242855;23;20043;-78
2021/10/25 09:01:28;;;;;;;34.92;4.50;;;14.20;99.90;;;;;;6240906;23;20572;-78
2021/10/25 09:04:07;;;;;;;32.42;4.95;;;14.30;99.90;;;;;;6241885;23;20042;-78
2021/10/25 09:06:47;;;;;;;40.20;4.68;;;14.40;99.90;;;;;;6242165;23;20074;-78
2021/10/25 09:09:15;;;;;;;36.42;4.15;;;14.40;99.90;;;;;;6241132;23;20055;-79
2021/10/25 09:12:00;;;;;;;26.02;4.30;;;14.60;99.90;;;;;;6241807;23;20093;-79
2021/10/25 09:14:28;;;;;;;27.90;4.00;;;14.60;99.90;;;;;;6241483;23;20074;-78
2021/10/25 09:17:00;;;;;;;30.17;4.15;;;14.70;99.90;;;;;;6241490;23;20020;-78
2021/10/25 09:19:32;;;;;;;20.05;3.03;;;14.80;99.90;;;;;;6240859;23;20485;-78
2021/10/25 09:22:15;;;;;;;21.17;3.40;;;14.80;99.90;;;;;;6241598;23;20016;-78
2021/10/25 09:24:56;;;;;;;23.45;2.97;;;14.90;99.90;;;;;;6241313;23;20401;-78
2021/10/25 09:27:40;;;;;;;23.00;2.60;;;14.90;99.90;;;;;;6240976;23;20074;-79
2021/10/25 09:30:07;;;;;;;19.35;2.47;;;15.00;99.90;;;;;;6240808;23;20406;-78
2021/10/25 09:32:34;;;;;;;14.98;2.13;;;15.10;99.90;;;;;;6239944;23;20020;-78
2021/10/25 09:35:05;;;;;;;22.85;2.80;;;15.10;99.90;;;;;;6241742;23;20019;-78
2021/10/25 09:37:39;;;;;;;18.90;2.75;;;15.20;99.90;;;;;;6240558;23;20047;-79
2021/10/25 09:40:19;;;;;;;19.38;2.90;;;15.30;99.90;;;;;;6241051;23;20016;-77
2021/10/25 09:43:24;;;;;;;16.38;2.25;;;15.40;99.90;;;;;;6241693;23;20015;-78
2021/10/25 09:49:15;;;;;;;15.57;2.45;;;15.50;99.90;;;;;;6089544;23;20041;-79
2021/10/25 09:51:22;;;;;;;18.98;3.03;;;15.60;99.90;;;;;;6085678;23;20034;-78
2021/10/25 09:54:05;;;;;;;17.70;2.97;;;15.70;99.90;;;;;;6089582;23;20599;-78
2021/10/25 09:56:35;;;;;;;18.55;2.53;;;15.80;99.90;;;;;;6089810;23;20077;-78
2021/10/25 09:59:15;;;;;;;11.55;2.08;;;15.90;99.90;;;;;;6089886;23;20026;-78
2021/10/25 10:01:44;;;;;;;14.35;2.47;;;16.00;99.90;;;;;;6089520;23;20707;-78
2021/10/25 10:04:11;;;;;;;;;;;16.00;99.90;;;;;;6090121;23;20568;-79
2021/10/25 10:06:39;;;;;;;16.70;2.35;;;16.00;99.90;;;;;;6089908;23;19969;-78
2021/10/25 10:09:05;;;;;;;15.80;2.10;;;16.10;99.90;;;;;;6089601;23;20026;-77
2021/10/25 10:11:34;;;;;;;14.40;2.47;;;16.00;99.90;;;;;;6089509;23;20023;-79
2021/10/25 10:14:02;;;;;;;;;;;16.00;99.90;;;;;;6090510;23;20019;-78
2021/10/25 10:16:29;;;;;;;16.10;2.63;;;16.00;99.90;;;;;;6089970;23;19917;-78
2021/10/25 10:19:07;;;;;;;20.05;2.92;;;16.00;99.90;;;;;;6089827;23;20018;-78
2021/10/25 10:21:35;;;;;;;15.93;2.22;;;16.00;99.90;;;;;;6089471;23;20023;-78
2021/10/25 10:24:05;;;;;;;14.43;2.40;;;16.00;99.90;;;;;;6089115;23;20035;-78
2021/10/25 10:26:35;;;;;;;13.45;1.75;;;16.00;99.90;;;;;;6235688;23;20027;-78
2021/10/25 10:29:16;;;;;;;12.32;2.20;;;15.90;99.90;;;;;;6214867;23;20034;-78
2021/10/25 10:31:43;;;;;;;10.35;2.10;;;15.90;99.90;;;;;;6240923;23;20031;-78
2021/10/25 10:34:15;;;;;;;12.00;1.98;;;15.90;99.90;;;;;;6240713;23;20020;-78
2021/10/25 10:36:56;;;;;;;12.73;2.15;;;16.00;99.90;;;;;;6214661;23;20024;-78
2021/10/25 10:39:28;;;;;;;13.50;1.95;;;16.00;99.90;;;;;;6240562;23;20024;-78
2021/10/25 10:42:05;;;;;;;13.82;1.60;;;16.00;99.90;;;;;;6241290;23;20027;-78
2021/10/25 10:44:32;;;;;;;18.95;2.53;;;16.00;99.90;;;;;;6241372;23;20016;-78
2021/10/25 10:47:08;;;;;;;15.43;1.95;;;16.10;99.90;;;;;;6241397;23;20092;-78
2021/10/25 10:49:45;;;;;;;9.50;1.75;;;16.10;99.90;;;;;;6241754;23;20017;-78
2021/10/25 10:52:20;;;;;;;11.55;2.60;;;16.10;99.90;;;;;;6242881;23;20027;-78
2021/10/25 10:55:09;;;;;;;15.85;2.20;;;16.10;99.90;;;;;;6243069;23;20070;-78
2021/10/25 11:00:34;;;;;;;16.10;2.38;;;16.30;99.90;;;;;;6242815;23;20069;-78
2021/10/25 11:03:21;;;;;;;9.02;1.58;;;16.30;99.90;;;;;;6243226;23;20072;-78
2021/10/25 11:05:57;;;;;;;11.63;1.77;;;16.30;99.90;;;;;;6242532;23;20016;-79
2021/10/25 11:08:32;;;;;;;18.95;2.72;;;16.30;99.90;;;;;;6242468;23;20028;-79
2021/10/25 11:11:05;;;;;;;11.90;1.90;;;16.30;99.90;;;;;;6242961;23;20077;-78
2021/10/25 11:13:42;;;;;;;10.75;2.00;;;16.20;99.90;;;;;;6242447;23;20386;-79
2021/10/25 11:16:16;;;;;;;12.75;1.83;;;16.00;99.90;;;;;;6242370;23;20479;-78
2021/10/25 11:18:48;;;;;;;11.50;1.95;;;15.80;99.90;;;;;;6243139;23;20052;-79
2021/10/25 11:21:17;;;;;;;10.55;1.90;;;15.70;99.90;;;;;;6242319;23;20074;-79
2021/10/25 11:23:55;;;;;;;18.13;2.08;;;15.60;99.90;;;;;;6216505;23;20016;-78
2021/10/25 11:26:36;;;;;;;13.45;1.80;;;15.60;99.90;;;;;;6242071;23;20028;-78
2021/10/25 11:29:06;;;;;;;10.10;1.35;;;15.70;99.90;;;;;;6242876;23;20067;-78
2021/10/25 11:31:44;;;;;;;9.95;1.30;;;15.80;99.90;;;;;;6242319;23;20012;-78
2021/10/25 11:34:22;;;;;;;13.32;1.90;;;15.80;99.90;;;;;;6241552;23;20031;-79
2021/10/25 11:37:01;;;;;;;12.93;1.67;;;15.90;99.90;;;;;;6242843;23;20020;-78
2021/10/25 11:39:46;;;;;;;6.50;1.30;;;15.90;99.90;;;;;;6215527;23;20466;-78
2021/10/25 11:42:29;;;;;;;8.48;1.70;;;15.90;99.90;;;;;;6241830;23;20090;-78
2021/10/25 11:44:59;;;;;;;9.80;1.50;;;15.90;99.90;;;;;;6242868;23;20086;-78
2021/10/25 11:47:34;;;;;;;11.30;1.58;;;16.00;99.90;;;;;;6241965;23;20070;-78
2021/10/25 11:50:14;;;;;;;10.70;1.85;;;15.90;99.90;;;;;;6242422;23;20016;-79
2021/10/25 11:52:54;;;;;;;9.80;1.52;;;16.00;99.90;;;;;;6242235;23;20082;-79
2021/10/25 11:55:25;;;;;;;13.07;1.63;;;16.10;99.90;;;;;;6241662;23;20051;-78
2021/10/25 11:57:55;;;;;;;9.48;1.80;;;16.10;99.90;;;;;;6243055;23;20024;-79
2021/10/25 12:00:27;;;;;;;9.00;1.80;;;16.20;99.90;;;;;;6241348;23;20032;-78
2021/10/25 12:03:05;;;;;;;6.30;1.23;;;16.20;99.90;;;;;;6241882;23;20024;-78
2021/10/25 12:05:32;;;;;;;7.72;1.40;;;16.30;99.90;;;;;;6242037;23;20031;-78
2021/10/25 12:07:59;;;;;;;8.98;1.40;;;16.30;99.90;;;;;;6242380;23;20500;-78
2021/10/25 12:10:27;;;;;;;7.95;1.92;;;16.40;99.90;;;;;;6242117;23;20028;-78
2021/10/25 12:13:03;;;;;;;7.97;1.40;;;16.40;99.90;;;;;;6242309;23;20020;-78
2021/10/25 12:15:33;;;;;;;10.02;1.67;;;16.40;99.90;;;;;;6241975;23;20019;-78
2021/10/25 12:18:06;;;;;;;8.40;1.20;;;16.40;99.90;;;;;;6242576;23;20496;-78
2021/10/25 12:20:39;;;;;;;9.32;1.50;;;16.40;99.90;;;;;;6242213;23;20474;-78
2021/10/25 12:23:22;;;;;;;8.25;1.20;;;16.40;99.90;;;;;;6241542;23;20023;-77
2021/10/25 12:25:59;;;;;;;5.63;1.35;;;16.50;99.90;;;;;;6242566;23;20363;-78
2021/10/25 12:28:26;;;;;;;6.30;1.48;;;16.60;99.90;;;;;;6242468;23;20511;-78
2021/10/25 12:31:15;;;;;;;10.52;1.60;;;16.60;99.90;;;;;;6241943;23;20020;-78
2021/10/25 12:33:45;;;;;;;7.10;1.33;;;16.70;99.90;;;;;;6240401;23;20019;-77
2021/10/25 12:36:16;;;;;;;10.63;1.60;;;16.70;99.90;;;;;;6242258;23;20032;-77
2021/10/25 12:38:46;;;;;;;7.70;1.13;;;16.70;99.90;;;;;;6241630;23;20024;-77
2021/10/25 12:41:14;;;;;;;8.93;1.65;;;16.70;99.90;;;;;;6240785;23;20024;-76
2021/10/25 12:43:49;;;;;;;10.43;1.45;;;16.70;99.90;;;;;;6243314;23;20091;-77
2021/10/25 12:46:22;;;;;;;7.50;1.55;;;16.70;99.90;;;;;;6241078;23;20481;-77
2021/10/25 12:48:54;;;;;;;5.70;1.23;;;16.80;99.90;;;;;;6242095;23;20022;-77
2021/10/25 12:51:23;;;;;;;4.70;1.05;;;16.80;99.90;;;;;;6241583;23;20027;-77
2021/10/25 12:53:51;;;;;;;;;;;16.80;99.90;;;;;;6242540;23;20074;-77
2021/10/25 12:56:26;;;;;;;6.07;0.90;;;16.80;99.90;;;;;;6241215;23;19916;-77
2021/10/25 12:59:08;;;;;;;10.55;1.50;;;16.80;99.90;;;;;;6241567;23;20020;-77
2021/10/25 13:01:35;;;;;;;6.38;1.20;;;16.70;99.90;;;;;;6240098;23;20047;-77
2021/10/25 13:04:05;;;;;;;8.23;1.52;;;16.70;99.90;;;;;;6240824;23;20043;-78
2021/10/25 13:06:34;;;;;;;9.85;1.17;;;16.60;99.90;;;;;;6242206;23;20486;-78
2021/10/25 13:09:08;;;;;;;6.80;1.38;;;16.60;99.90;;;;;;6242599;23;20099;-77
2021/10/25 13:11:36;;;;;;;7.85;1.38;;;16.60;99.90;;;;;;6241464;23;20027;-77
2021/10/25 13:14:03;;;;;;;6.88;1.27;;;16.60;99.90;;;;;;6242515;23;20020;-77
2021/10/25 13:16:44;;;;;;;6.43;0.97;;;16.60;99.90;;;;;;6241736;23;20016;-77
2021/10/25 13:19:13;;;;;;;6.55;1.20;;;16.60;99.90;;;;;;6241476;23;20046;-77
2021/10/25 13:21:40;;;;;;;;;;;16.50;99.90;;;;;;6241843;23;20020;-77
2021/10/25 13:24:08;;;;;;;6.07;1.38;;;16.50;99.90;;;;;;6241873;23;19926;-77
2021/10/25 13:26:42;;;;;;;6.95;1.20;;;16.50;99.90;;;;;;6242497;23;20020;-77
2021/10/25 13:29:09;;;;;;;8.48;1.08;;;16.50;99.90;;;;;;6240917;23;20024;-76
2021/10/25 13:31:36;;;;;;;5.82;1.00;;;16.50;99.90;;;;;;6241865;23;20066;-77
2021/10/25 13:34:03;;;;;;;5.65;1.13;;;16.50;99.90;;;;;;6241172;23;20031;-77
2021/10/25 13:36:31;;;;;;;5.30;1.10;;;16.60;99.90;;;;;;6241997;23;20012;-77
2021/10/25 13:39:07;;;;;;;7.55;1.20;;;16.60;99.90;;;;;;6241283;23;20020;-77
2021/10/25 13:41:34;;;;;;;7.32;1.20;;;16.60;99.90;;;;;;6214844;23;20031;-77
2021/10/25 13:44:01;;;;;;;5.47;0.73;;;16.70;99.90;;;;;;6240204;23;20470;-78
2021/10/25 13:46:28;;;;;;;5.18;1.05;;;16.70;99.90;;;;;;6214772;23;20024;-78
2021/10/25 13:48:55;;;;;;;7.10;1.30;;;16.70;99.90;;;;;;6241399;23;20483;-78
2021/10/25 13:51:21;;;;;;;7.22;1.23;;;16.60;99.90;;;;;;6239180;23;20406;-78
2021/10/25 13:53:48;;;;;;;9.13;1.52;;;16.60;99.90;;;;;;6241701;23;20020;-78
2021/10/25 13:56:15;;;;;;;9.70;1.65;;;16.60;99.90;;;;;;6214333;23;20028;-78
2021/10/25 13:58:42;;;;;;;6.35;1.13;;;16.50;99.90;;;;;;6241188;23;20038;-78
2021/10/25 14:01:10;;;;;;;6.60;1.50;;;16.50;99.90;;;;;;6240383;22;20020;-78
2021/10/25 14:03:39;;;;;;;9.10;1.23;;;16.50;99.90;;;;;;6242061;23;20534;-78
2021/10/25 14:06:08;;;;;;;7.80;1.30;;;16.60;99.90;;;;;;6240739;23;20024;-77
2021/10/25 14:08:35;;;;;;;7.78;1.38;;;16.50;99.90;;;;;;6241681;23;20024;-78
2021/10/25 14:11:03;;;;;;;4.85;1.30;;;16.60;99.90;;;;;;6241243;23;20421;-77
2021/10/25 14:18:43;;;;;;;7.15;1.45;;;16.70;99.90;;;;;;6241143;23;20185;-78
2021/10/25 14:21:13;;;;;;;6.95;1.40;;;16.80;99.90;;;;;;6241143;23;20024;-78
2021/10/25 14:23:40;;;;;;;9.43;2.00;;;16.80;99.90;;;;;;6241804;23;20027;-78
2021/10/25 14:26:08;;;;;;;9.63;2.10;;;16.90;99.90;;;;;;6240740;23;20023;-77
2021/10/25 14:28:35;;;;;;;9.45;1.60;;;16.90;99.90;;;;;;6240542;23;20023;-79
2021/10/25 14:31:04;;;;;;;6.72;1.40;;;17.00;99.90;;;;;;6241052;23;20183;-78
2021/10/25 14:33:35;;;;;;;10.90;1.48;;;16.90;99.90;;;;;;6240645;23;20035;-78
2021/10/25 14:36:03;;;;;;;8.93;1.58;;;16.90;99.90;;;;;;6241322;23;20075;-78
2021/10/25 14:43:37;;;;;;;11.15;1.52;;;16.80;99.90;;;;;;6240466;23;20028;-78
2021/10/25 14:46:11;;;;;;;11.80;1.73;;;16.80;99.90;;;;;;6240712;23;20422;-77
2021/10/25 14:54:25;;;;;;;7.18;1.60;;;16.70;99.90;;;;;;6177820;23;20025;-78
2021/10/25 14:56:52;;;;;;;10.90;1.52;;;16.70;99.90;;;;;;6177368;23;20032;-78
2021/10/25 14:59:19;;;;;;;10.32;1.50;;;16.60;99.90;;;;;;6177921;23;20021;-78
2021/10/25 15:01:46;;;;;;;8.57;1.50;;;16.60;99.90;;;;;;6178044;23;20024;-78
2021/10/25 15:04:32;;;;;;;11.30;1.55;;;16.50;99.90;;;;;;6177616;23;20362;-78
2021/10/25 15:07:00;;;;;;;8.57;1.50;;;16.50;99.90;;;;;;6178591;23;20063;-78
2021/10/25 15:09:27;;;;;;;10.65;1.92;;;16.50;99.90;;;;;;6177294;23;20041;-78
2021/10/25 15:11:54;;;;;;;7.63;1.40;;;16.50;99.90;;;;;;6177628;23;20479;-78
2021/10/25 15:14:21;;;;;;;11.45;1.80;;;16.50;99.90;;;;;;6177649;23;20076;-78
2021/10/25 15:16:48;;;;;;;9.98;2.00;;;16.50;99.90;;;;;;6178403;23;20025;-78
2021/10/25 15:19:15;;;;;;;12.63;2.10;;;16.50;99.90;;;;;;6177103;23;20128;-78
2021/10/25 15:21:44;;;;;;;5.78;1.35;;;16.50;99.90;;;;;;6178465;23;20021;-78
2021/10/25 15:24:13;;;;;;;7.00;1.40;;;16.50;99.90;;;;;;6177582;23;20577;-79
2021/10/25 15:26:46;;;;;;;15.55;1.80;;;16.40;99.90;;;;;;6193420;23;20470;-78
2021/10/25 15:29:13;;;;;;;8.77;1.65;;;16.30;99.90;;;;;;6239961;23;20032;-78
2021/10/25 15:31:40;;;;;;;7.70;1.38;;;16.20;99.90;;;;;;6241195;23;20331;-78
2021/10/25 15:34:07;;;;;;;5.57;1.40;;;16.10;99.90;;;;;;6240939;23;20020;-78
2021/10/25 15:36:34;;;;;;;8.70;1.55;;;16.10;99.90;;;;;;6242830;23;20013;-78
2021/10/25 15:39:01;;;;;;;6.13;1.50;;;16.00;99.90;;;;;;6242854;23;20405;-78
2021/10/25 15:41:28;;;;;;;10.95;1.95;;;16.00;99.90;;;;;;6241997;23;20024;-78
2021/10/25 15:43:55;;;;;;;10.27;1.70;;;16.00;99.90;;;;;;6242438;23;20348;-78
2021/10/25 15:46:22;;;;;;;11.05;1.50;;;16.00;99.90;;;;;;6242314;23;20024;-78
2021/10/25 15:48:49;;;;;;;7.70;1.70;;;16.00;99.90;;;;;;6242568;23;20026;-78
2021/10/25 15:51:16;;;;;;;8.75;1.60;;;16.00;99.90;;;;;;6241711;23;20023;-78
2021/10/25 15:53:48;;;;;;;8.30;1.45;;;15.90;99.90;;;;;;6242685;23;20016;-78
2021/10/25 15:56:15;;;;;;;7.78;1.50;;;15.90;99.90;;;;;;6241408;23;20070;-78
2021/10/25 15:58:42;;;;;;;9.07;1.58;;;15.90;99.90;;;;;;6242529;23;20024;-78
2021/10/25 16:01:09;;;;;;;13.95;2.03;;;15.80;99.90;;;;;;6242171;23;20082;-79
2021/10/25 16:03:36;;;;;;;12.95;2.03;;;15.70;99.90;;;;;;6242610;23;20020;-78
2021/10/25 16:06:04;;;;;;;8.00;1.80;;;15.70;99.90;;;;;;6242469;23;20020;-78
2021/10/25 16:08:31;;;;;;;13.70;2.00;;;15.60;99.90;;;;;;6241961;23;20012;-78
2021/10/25 16:10:59;;;;;;;13.05;2.13;;;15.60;99.90;;;;;;6242304;23;20024;-78
2021/10/25 16:13:26;;;;;;;10.85;1.88;;;15.50;99.90;;;;;;6241841;23;20467;-78
2021/10/25 16:15:53;;;;;;;11.18;1.65;;;15.50;99.90;;;;;;6216160;23;20023;-78
2021/10/25 16:18:20;;;;;;;10.95;2.05;;;15.40;99.90;;;;;;6242077;23;20016;-78
2021/10/25 16:20:50;;;;;;;8.50;2.00;;;15.40;99.90;;;;;;6242657;23;20478;-77
2021/10/25 16:23:18;;;;;;;14.50;2.20;;;15.30;99.90;;;;;;6240975;23;20024;-78
2021/10/25 16:25:46;;;;;;;10.77;2.33;;;15.20;99.90;;;;;;6242592;23;20020;-77
2021/10/25 16:28:14;;;;;;;11.18;1.67;;;15.20;99.90;;;;;;6241473;23;20028;-78
2021/10/25 16:30:41;;;;;;;12.02;1.90;;;15.20;99.90;;;;;;6241838;23;20016;-78
2021/10/25 16:33:08;;;;;;;10.25;1.65;;;15.10;99.90;;;;;;6241670;23;20028;-78
2021/10/25 16:35:35;;;;;;;12.73;2.00;;;15.10;99.90;;;;;;6242078;23;20016;-78
2021/10/25 16:38:02;;;;;;;16.00;2.35;;;15.00;99.90;;;;;;6241612;23;20366;-78
2021/10/25 16:40:28;;;;;;;10.63;1.80;;;14.90;99.90;;;;;;6242521;23;20517;-77
2021/10/25 16:42:55;;;;;;;10.90;2.05;;;14.90;99.90;;;;;;6242078;23;20024;-78
2021/10/25 16:45:24;;;;;;;14.55;2.20;;;14.90;99.90;;;;;;6241228;23;20020;-77
2021/10/25 16:47:52;;;;;;;13.23;2.20;;;14.80;99.90;;;;;;6242410;23;20020;-78
2021/10/25 16:50:20;;;;;;;16.50;2.75;;;14.70;99.90;;;;;;6241804;23;20016;-78
2021/10/25 17:03:47;;;;;;;15.00;2.42;;;14.40;99.90;;;;;;6241159;23;20027;-77
2021/10/25 17:06:22;;;;;;;15.48;3.03;;;14.30;99.90;;;;;;6241362;23;20485;-77
2021/10/25 17:11:36;;;;;;;12.98;2.25;;;14.20;99.90;;;;;;6241910;23;20016;-77
2021/10/25 17:14:02;;;;;;;13.75;2.63;;;14.10;99.90;;;;;;6240497;23;20020;-77
2021/10/25 17:16:29;;;;;;;18.55;3.00;;;14.00;99.90;;;;;;6242523;23;20465;-77
2021/10/25 17:18:57;;;;;;;18.52;3.05;;;14.00;99.90;;;;;;6241116;23;20347;-78
2021/10/25 17:21:28;;;;;;;15.13;2.75;;;13.90;99.90;;;;;;6240477;23;20035;-77
2021/10/25 17:23:55;;;;;;;17.52;2.90;;;13.80;99.90;;;;;;6242335;23;20082;-77
2021/10/25 17:26:22;;;;;;;13.10;2.70;;;13.80;99.90;;;;;;6241209;23;20071;-78
2021/10/25 17:28:58;;;;;;;17.75;3.10;;;13.70;99.90;;;;;;6241521;23;20381;-78
2021/10/25 17:31:25;;;;;;;13.88;2.88;;;13.70;99.90;;;;;;6239776;23;20106;-78
2021/10/25 17:33:54;;;;;;;18.95;2.97;;;13.60;99.90;;;;;;6241851;23;20422;-78
2021/10/25 17:36:21;;;;;;;15.35;2.75;;;13.60;99.90;;;;;;6240946;23;20477;-77
2021/10/25 17:38:48;;;;;;;17.85;3.92;;;13.50;99.90;;;;;;6241742;23;20078;-77
2021/10/25 17:41:18;;;;;;;15.48;2.72;;;13.50;99.90;;;;;;6240873;23;20099;-78
2021/10/25 17:43:46;;;;;;;21.40;2.97;;;13.50;99.90;;;;;;6241943;23;20020;-77
2021/10/25 17:46:13;;;;;;;17.20;3.13;;;13.40;99.90;;;;;;6240729;23;20024;-78
2021/10/25 17:48:40;;;;;;;20.50;3.00;;;13.40;99.90;;;;;;6241603;23;20022;-77
2021/10/25 17:51:07;;;;;;;19.42;2.95;;;13.30;99.90;;;;;;6240632;23;20020;-77
2021/10/25 17:53:35;;;;;;;17.90;2.90;;;13.30;99.90;;;;;;6241566;23;20058;-78
2021/10/25 17:56:03;;;;;;;21.38;3.38;;;13.20;99.90;;;;;;6241304;23;20367;-77
2021/10/25 17:58:30;;;;;;;19.15;3.00;;;13.20;99.90;;;;;;6241160;23;20016;-77
2021/10/25 18:00:58;;;;;;;23.98;3.33;;;13.20;99.90;;;;;;6240912;23;20070;-77
2021/10/25 18:03:27;;;;;;;25.13;3.65;;;13.10;99.90;;;;;;6240733;23;20078;-77
2021/10/25 18:05:54;;;;;;;19.85;4.03;;;13.10;99.90;;;;;;6240887;23;20016;-77
2021/10/25 18:08:27;;;;;;;17.90;3.63;;;13.10;99.90;;;;;;6241548;23;20548;-78
2021/10/25 18:10:54;;;;;;;23.90;4.72;;;13.00;99.90;;;;;;6241184;23;20024;-78
2021/10/25 18:13:22;;;;;;;19.70;3.60;;;13.00;99.90;;;;;;6240598;23;20028;-77
2021/10/25 18:15:50;;;;;;;17.92;2.92;;;12.90;99.90;;;;;;6241613;23;20020;-78
2021/10/25 18:18:18;;;;;;;16.33;3.00;;;12.90;99.90;;;;;;6241437;23;20024;-77
2021/10/25 18:20:46;;;;;;;18.35;3.58;;;12.90;99.90;;;;;;6240792;23;20058;-77
2021/10/25 18:23:14;;;;;;;22.60;3.42;;;12.80;99.90;;;;;;6240548;23;20086;-77
2021/10/25 18:25:42;;;;;;;20.77;3.08;;;12.80;99.90;;;;;;6241233;23;20043;-77
2021/10/25 18:28:11;;;;;;;17.48;2.90;;;12.70;99.90;;;;;;6241366;23;20374;-77
2021/10/25 18:30:39;;;;;;;20.85;3.80;;;12.70;99.90;;;;;;6241195;23;20027;-77
2021/10/25 18:33:07;;;;;;;22.77;3.03;;;12.70;99.90;;;;;;6240749;23;20020;-76
2021/10/25 18:35:34;;;;;;;25.02;3.10;;;12.70;99.90;;;;;;6240886;23;20082;-78
2021/10/25 18:38:02;;;;;;;22.23;2.95;;;12.60;99.90;;;;;;6241844;23;20063;-77
2021/10/25 18:40:31;;;;;;;21.47;3.43;;;12.60;99.90;;;;;;6241120;23;20042;-77
2021/10/25 18:42:59;;;;;;;18.80;3.28;;;12.60;99.90;;;;;;6241385;23;20462;-77
2021/10/25 18:45:27;;;;;;;28.15;3.30;;;12.50;99.90;;;;;;6240565;23;20016;-78
2021/10/25 18:47:55;;;;;;;18.88;3.33;;;12.50;99.90;;;;;;6240990;23;20012;-77
2021/10/25 18:50:22;;;;;;;20.70;3.63;;;12.50;99.90;;;;;;6240558;23;20024;-77
2021/10/25 18:52:51;;;;;;;18.67;3.03;;;12.50;99.90;;;;;;6214442;23;20020;-77
2021/10/25 18:55:20;;;;;;;17.75;3.55;;;12.40;99.90;;;;;;6240606;23;20024;-77
2021/10/25 18:57:47;;;;;;;22.38;3.05;;;12.40;99.90;;;;;;6241345;23;20532;-78
2021/10/25 19:00:17;;;;;;;19.63;3.38;;;12.40;99.90;;;;;;6240101;23;20026;-77
2021/10/25 19:02:44;;;;;;;24.55;3.17;;;12.40;99.90;;;;;;6241282;23;20031;-77
2021/10/25 19:05:14;;;;;;;19.08;3.22;;;12.30;99.90;;;;;;6240454;23;20033;-77
2021/10/25 19:07:42;;;;;;;18.30;3.78;;;12.30;99.90;;;;;;6241590;23;20051;-77
2021/10/25 19:10:10;;;;;;;18.02;3.05;;;12.30;99.90;;;;;;6242330;23;20024;-77
2021/10/25 19:12:38;;;;;;;;;;;12.20;99.90;;;;;;6243574;23;20082;-77
2021/10/25 19:15:06;;;;;;;18.00;2.80;;;12.10;99.90;;;;;;6242829;23;19916;-77
2021/10/25 19:17:34;;;;;;;17.10;3.15;;;12.10;99.90;;;;;;6242178;23;20395;-77
2021/10/25 19:20:01;;;;;;;22.08;3.15;;;12.00;99.90;;;;;;6242937;23;20466;-77
2021/10/25 19:22:28;;;;;;;18.23;3.03;;;11.90;99.90;;;;;;6242385;23;20331;-77
2021/10/25 19:24:56;;;;;;;19.88;2.90;;;11.90;99.90;;;;;;6242683;23;20028;-78
2021/10/25 19:27:23;;;;;;;20.58;3.42;;;11.90;99.90;;;;;;6242133;23;20024;-77
2021/10/25 19:29:50;;;;;;;24.17;3.10;;;11.80;99.90;;;;;;6243060;23;20016;-77
2021/10/25 19:32:17;;;;;;;18.48;4.10;;;11.80;99.90;;;;;;6241321;23;20028;-76
2021/10/25 19:34:48;;;;;;;20.95;3.38;;;11.70;99.90;;;;;;6243243;23;20030;-77
2021/10/25 19:37:15;;;;;;;17.45;3.60;;;11.70;99.90;;;;;;6241967;23;20028;-77
2021/10/25 19:39:43;;;;;;;19.67;3.90;;;11.70;99.90;;;;;;6242981;23;20328;-77
2021/10/25 19:42:10;;;;;;;22.30;4.65;;;11.60;99.90;;;;;;6242075;23;20078;-77
2021/10/25 19:44:37;;;;;;;19.88;4.13;;;11.60;99.90;;;;;;6242582;23;20020;-77
2021/10/25 19:47:04;;;;;;;20.77;4.95;;;11.50;99.90;;;;;;6242967;23;20375;-77
2021/10/25 19:49:31;;;;;;;19.65;6.05;;;11.40;99.90;;;;;;6242040;23;20074;-77
2021/10/25 19:51:58;;;;;;;22.27;5.20;;;11.40;99.90;;;;;;6242704;23;20020;-77
2021/10/25 19:54:25;;;;;;;24.02;5.70;;;11.40;99.90;;;;;;6242435;23;20103;-77
2021/10/25 19:56:52;;;;;;;26.88;5.60;;;11.40;99.90;;;;;;6242746;23;20020;-77
2021/10/25 19:59:18;;;;;;;21.25;5.35;;;11.40;99.90;;;;;;6241873;23;20098;-77
2021/10/25 20:01:45;;;;;;;24.52;5.88;;;11.30;99.90;;;;;;6239319;23;20020;-77
2021/10/25 20:04:14;;;;;;;26.20;6.57;;;11.30;99.90;;;;;;6241993;23;20661;-77
2021/10/25 20:06:41;;;;;;;31.45;6.43;;;11.30;99.90;;;;;;6242781;23;20050;-77
2021/10/25 20:09:08;;;;;;;23.30;6.38;;;11.20;99.90;;;;;;6242130;23;20024;-77
2021/10/25 20:11:35;;;;;;;27.83;7.82;;;11.20;99.90;;;;;;6242285;23;20370;-77
2021/10/25 20:14:03;;;;;;;31.85;6.72;;;11.20;99.90;;;;;;6242506;23;20079;-77
2021/10/25 20:16:30;;;;;;;28.60;7.05;;;11.10;99.90;;;;;;6242486;23;20008;-77
2021/10/25 20:18:57;;;;;;;31.02;7.20;;;11.10;99.90;;;;;;6242388;23;20020;-77
2021/10/25 20:21:24;;;;;;;34.88;7.13;;;11.10;99.90;;;;;;6240950;23;20035;-77
2021/10/25 20:23:51;;;;;;;28.73;6.45;;;11.10;99.90;;;;;;6242479;23;20074;-78